createdAt,value
2022-09-10T00:01:31.682Z,54.64
2022-09-10T00:04:01.611Z,55.71
2022-09-10T00:06:29.667Z,57.01
2022-09-10T00:08:59.059Z,58.33
2022-09-10T00:11:31.684Z,59.56
2022-09-10T00:14:01.264Z,60.72
2022-09-10T00:16:30.994Z,61.66
2022-09-10T00:19:00.922Z,65.57
2022-09-10T00:21:30.007Z,64.04
2022-09-10T00:23:58.867Z,58.42
2022-09-10T00:26:28.896Z,56.67
2022-09-10T00:28:59.943Z,57.07
2022-09-10T00:31:30.515Z,58.39
2022-09-10T00:33:59.839Z,59.83
2022-09-10T00:36:32.843Z,61.04
2022-09-10T00:39:03.762Z,64.44
2022-09-10T00:41:34.212Z,63.62
2022-09-10T00:44:05.232Z,57.91
2022-09-10T00:46:39.527Z,56.07
2022-09-10T00:49:14.898Z,57.25
2022-09-10T00:51:45.732Z,58.39
2022-09-10T00:54:17.828Z,59.66
2022-09-10T00:56:47.771Z,60.80
2022-09-10T00:59:21.201Z,64.85
2022-09-10T01:01:49.480Z,63.10
2022-09-10T01:04:17.498Z,58.47
2022-09-10T01:06:46.464Z,56.92
2022-09-10T01:09:15.023Z,58.50
2022-09-10T01:11:57.128Z,60.07
2022-09-10T01:14:39.829Z,63.54
2022-09-10T01:17:19.523Z,62.93
2022-09-10T01:20:25.037Z,56.86
2022-09-10T01:23:05.608Z,56.37
2022-09-10T01:25:40.768Z,58.05
2022-09-10T01:28:30.740Z,59.83
2022-09-10T01:31:07.015Z,61.38
2022-09-10T01:33:43.085Z,65.65
2022-09-10T01:36:17.680Z,63.67
2022-09-10T01:38:46.368Z,57.70
2022-09-10T01:41:14.150Z,56.12
2022-09-10T01:43:42.173Z,57.32
2022-09-10T01:46:41.538Z,59.08
2022-09-10T01:49:34.804Z,60.57
2022-09-10T01:52:28.693Z,65.13
2022-09-10T01:55:26.827Z,62.24
2022-09-10T01:58:17.151Z,55.62
2022-09-10T02:00:54.504Z,55.18
2022-09-10T02:03:25.634Z,56.94
2022-09-10T02:05:54.901Z,58.51
2022-09-10T02:08:33.688Z,60.01
2022-09-10T02:11:06.402Z,61.21
2022-09-10T02:13:35.400Z,64.65
2022-09-10T02:16:08.257Z,63.80
2022-09-10T02:18:39.162Z,60.67
2022-09-10T02:21:09.001Z,56.54
2022-09-10T02:23:44.384Z,56.04
2022-09-10T02:26:14.493Z,57.83
2022-09-10T02:28:49.685Z,59.74
2022-09-10T02:31:18.937Z,61.38
2022-09-10T02:33:46.815Z,65.13
2022-09-10T02:36:14.642Z,63.54
2022-09-10T02:38:42.424Z,58.01
2022-09-10T02:41:10.513Z,56.76
2022-09-10T02:43:38.304Z,58.32
2022-09-10T02:46:08.196Z,60.08
2022-09-10T02:48:36.187Z,61.70
2022-09-10T02:51:04.424Z,65.14
2022-09-10T02:53:32.322Z,63.70
2022-09-10T02:56:01.082Z,59.43
2022-09-10T02:58:33.801Z,55.02
2022-09-10T03:01:16.736Z,55.57
2022-09-10T03:03:49.562Z,57.37
2022-09-10T03:06:17.475Z,59.62
2022-09-10T03:08:45.282Z,61.40
2022-09-10T03:11:13.772Z,64.64
2022-09-10T03:13:42.764Z,63.48
2022-09-10T03:16:10.475Z,59.99
2022-09-10T03:18:38.401Z,56.11
2022-09-10T03:21:15.148Z,56.06
2022-09-10T03:23:44.920Z,57.73
2022-09-10T03:26:14.474Z,59.75
2022-09-10T03:28:43.712Z,61.20
2022-09-10T03:31:11.740Z,64.97
2022-09-10T03:33:43.524Z,64.58
2022-09-10T03:36:13.470Z,60.11
2022-09-10T03:38:41.246Z,54.86
2022-09-10T03:41:09.818Z,54.54
2022-09-10T03:43:37.734Z,56.31
2022-09-10T03:46:05.809Z,58.20
2022-09-10T03:48:33.806Z,60.22
2022-09-10T03:51:01.587Z,61.80
2022-09-10T03:53:29.489Z,65.14
2022-09-10T03:55:57.230Z,64.20
2022-09-10T03:58:24.978Z,60.74
2022-09-10T04:00:52.919Z,56.58
2022-09-10T04:03:20.616Z,56.52
2022-09-10T04:05:48.393Z,58.32
2022-09-10T04:08:16.569Z,60.27
2022-09-10T04:10:44.509Z,63.55
2022-09-10T04:13:12.780Z,62.90
2022-09-10T04:15:43.257Z,59.87
2022-09-10T04:18:12.009Z,56.54
2022-09-10T04:20:40.497Z,56.77
2022-09-10T04:23:08.228Z,58.64
2022-09-10T04:25:36.107Z,60.61
2022-09-10T04:28:04.015Z,63.70
2022-09-10T04:30:32.368Z,63.15
2022-09-10T04:33:00.867Z,60.45
2022-09-10T04:35:28.785Z,56.29
2022-09-10T04:37:56.611Z,56.21
2022-09-10T04:40:24.664Z,57.99
2022-09-10T04:42:52.311Z,60.06
2022-09-10T04:45:20.111Z,61.82
2022-09-10T04:47:47.886Z,65.34
2022-09-10T04:50:15.759Z,63.97
2022-09-10T04:52:43.715Z,60.15
2022-09-10T04:55:12.212Z,55.47
2022-09-10T04:57:40.037Z,55.49
2022-09-10T05:00:08.919Z,57.33
2022-09-10T05:02:37.649Z,59.29
2022-09-10T05:05:05.984Z,61.21
2022-09-10T05:07:33.665Z,64.78
2022-09-10T05:10:01.376Z,63.20
2022-09-10T05:12:29.324Z,57.57
2022-09-10T05:14:57.043Z,56.51
2022-09-10T05:17:24.722Z,58.19
2022-09-10T05:19:52.376Z,60.27
2022-09-10T05:22:21.808Z,62.00
2022-09-10T05:24:50.280Z,65.76
2022-09-10T05:27:18.022Z,63.53
2022-09-10T05:29:45.695Z,58.19
2022-09-10T05:32:13.589Z,56.94
2022-09-10T05:34:41.624Z,58.65
2022-09-10T05:37:09.412Z,60.62
2022-09-10T05:39:37.288Z,64.26
2022-09-10T05:42:05.862Z,63.13
2022-09-10T05:44:34.326Z,57.91
2022-09-10T05:47:02.048Z,57.01
2022-09-10T05:49:30.573Z,58.68
2022-09-10T05:51:58.238Z,60.55
2022-09-10T05:54:26.159Z,63.80
2022-09-10T05:56:54.180Z,62.97
2022-09-10T05:59:22.068Z,58.32
2022-09-10T06:01:52.136Z,57.44
2022-09-10T06:04:20.067Z,59.16
2022-09-10T06:06:50.724Z,60.80
2022-09-10T06:09:19.488Z,64.42
2022-09-10T06:11:50.198Z,63.32
2022-09-10T06:14:17.886Z,58.39
2022-09-10T06:16:45.694Z,57.25
2022-09-10T06:19:15.056Z,58.77
2022-09-10T06:21:42.764Z,60.26
2022-09-10T06:24:10.459Z,61.76
2022-09-10T06:26:38.247Z,64.99
2022-09-10T06:29:06.208Z,64.28
2022-09-10T06:31:34.812Z,61.15
2022-09-10T06:34:02.620Z,57.22
2022-09-10T06:36:30.572Z,56.92
2022-09-10T06:38:58.347Z,58.55
2022-09-10T06:41:26.667Z,59.99
2022-09-10T06:43:54.461Z,61.45
2022-09-10T06:47:01.696Z,64.66
2022-09-10T06:49:11.559Z,63.77
2022-09-10T06:51:39.889Z,60.42
2022-09-10T06:54:07.899Z,56.43
2022-09-10T06:56:35.722Z,56.35
2022-09-10T06:59:03.455Z,57.10
2022-09-10T07:01:31.394Z,58.87
2022-09-10T07:04:01.148Z,60.23
2022-09-10T07:06:35.961Z,64.26
2022-09-10T07:09:04.434Z,63.86
2022-09-10T07:11:32.809Z,58.28
2022-09-10T07:14:01.557Z,56.68
2022-09-10T07:16:29.772Z,58.07
2022-09-10T07:19:00.218Z,59.58
2022-09-10T07:21:28.977Z,61.27
2022-09-10T07:23:58.736Z,65.10
2022-09-10T07:26:26.507Z,64.32
2022-09-10T07:28:55.265Z,60.86
2022-09-10T07:31:28.174Z,56.94
2022-09-10T07:34:01.053Z,56.18
2022-09-10T07:36:30.129Z,57.75
2022-09-10T07:39:01.897Z,59.35
2022-09-10T07:41:33.226Z,60.85
2022-09-10T07:44:01.064Z,64.66
2022-09-10T07:46:28.910Z,63.28
2022-09-10T07:49:01.225Z,57.23
2022-09-10T07:51:32.488Z,55.98
2022-09-10T07:54:00.180Z,57.65
2022-09-10T07:56:32.477Z,59.65
2022-09-10T07:59:02.738Z,61.20
2022-09-10T08:01:31.811Z,64.74
2022-09-10T08:04:00.441Z,63.83
2022-09-10T08:06:28.355Z,58.16
2022-09-10T08:08:56.195Z,56.16
2022-09-10T08:11:24.441Z,58.00
2022-09-10T08:13:54.072Z,59.72
2022-09-10T08:16:24.088Z,61.06
2022-09-10T08:18:52.170Z,64.85
2022-09-10T08:21:21.257Z,63.70
2022-09-10T08:23:51.169Z,57.89
2022-09-10T08:26:18.865Z,56.34
2022-09-10T08:28:47.421Z,57.25
2022-09-10T08:31:16.372Z,58.23
2022-09-10T08:33:49.517Z,58.89
2022-09-10T08:36:18.585Z,60.20
2022-09-10T08:38:46.536Z,61.46
2022-09-10T08:41:26.846Z,64.46
2022-09-10T08:44:03.377Z,64.28
2022-09-10T08:46:35.938Z,58.70
2022-09-10T08:49:26.140Z,56.82
2022-09-10T08:51:59.112Z,57.49
2022-09-10T08:54:41.638Z,58.89
2022-09-10T08:57:22.501Z,60.40
2022-09-10T08:59:52.478Z,61.50
2022-09-10T09:02:48.392Z,65.10
2022-09-10T09:05:20.554Z,63.58
2022-09-10T09:07:50.691Z,60.19
2022-09-10T09:10:20.249Z,55.94
2022-09-10T09:13:09.735Z,55.42
2022-09-10T09:15:55.060Z,56.67
2022-09-10T09:18:47.783Z,58.30
2022-09-10T09:21:44.433Z,58.49
2022-09-10T09:24:22.720Z,60.95
2022-09-10T09:26:53.387Z,64.90
2022-09-10T09:29:46.379Z,63.82
2022-09-10T09:32:18.941Z,56.70
2022-09-10T09:34:52.303Z,55.27
2022-09-10T09:37:24.760Z,56.38
2022-09-10T09:40:12.637Z,58.28
2022-09-10T09:43:02.275Z,60.16
2022-09-10T09:45:43.855Z,60.50
2022-09-10T09:48:18.142Z,63.63
2022-09-10T09:50:52.097Z,63.21
2022-09-10T09:53:23.323Z,58.14
2022-09-10T09:56:00.851Z,56.46
2022-09-10T09:58:32.341Z,57.69
2022-09-10T10:01:06.194Z,58.77
2022-09-10T10:03:55.047Z,59.89
2022-09-10T10:06:34.791Z,61.48
2022-09-10T10:09:06.310Z,64.29
2022-09-10T10:11:42.019Z,63.36
2022-09-10T10:14:39.262Z,58.52
2022-09-10T10:17:25.097Z,56.85
2022-09-10T10:20:35.607Z,57.50
2022-09-10T10:23:31.200Z,58.79
2022-09-10T10:26:15.670Z,59.97
2022-09-10T10:28:47.269Z,63.74
2022-09-10T10:31:16.467Z,62.05
2022-09-10T10:33:58.968Z,57.05
2022-09-10T10:36:59.897Z,56.59
2022-09-10T10:39:49.057Z,59.27
2022-09-10T10:42:22.275Z,59.95
2022-09-10T10:45:21.333Z,60.27
2022-09-10T10:48:16.003Z,61.31
2022-09-10T10:51:23.675Z,63.31
2022-09-10T10:54:16.282Z,63.84
2022-09-10T10:57:10.179Z,58.84
2022-09-10T10:59:46.826Z,57.21
2022-09-10T11:02:24.335Z,58.59
2022-09-10T11:04:54.764Z,60.13
2022-09-10T11:07:27.441Z,60.15
2022-09-10T11:10:11.733Z,62.86
2022-09-10T11:12:44.543Z,62.76
2022-09-10T11:15:21.284Z,59.83
2022-09-10T11:18:07.102Z,56.10
2022-09-10T11:20:42.582Z,54.22
2022-09-10T11:23:38.513Z,55.03
2022-09-10T11:26:15.801Z,56.94
2022-09-10T11:29:05.454Z,58.21
2022-09-10T11:31:41.941Z,58.50
2022-09-10T11:34:39.150Z,58.80
2022-09-10T11:37:28.625Z,58.92
2022-09-10T11:40:02.522Z,60.62
2022-09-10T11:42:39.779Z,61.67
2022-09-10T11:45:18.715Z,62.14
2022-09-10T11:47:57.189Z,64.24
2022-09-10T11:50:36.977Z,61.70
2022-09-10T11:53:07.766Z,56.59
2022-09-10T11:56:00.621Z,55.98
2022-09-10T11:59:02.731Z,56.38
2022-09-10T12:01:39.013Z,58.25
2022-09-10T12:04:47.355Z,58.81
2022-09-10T12:07:18.106Z,58.83
2022-09-10T12:09:48.754Z,60.07
2022-09-10T12:12:27.793Z,60.47
2022-09-10T12:14:56.229Z,61.04
2022-09-10T12:17:36.863Z,62.42
2022-09-10T12:20:06.937Z,63.90
2022-09-10T12:22:40.598Z,58.50
2022-09-10T12:25:33.621Z,56.25
2022-09-10T12:28:07.889Z,57.55
2022-09-10T12:30:35.957Z,57.45
2022-09-10T12:33:12.610Z,57.75
2022-09-10T12:35:47.193Z,57.62
2022-09-10T12:38:52.714Z,59.20
2022-09-10T12:41:21.218Z,60.52
2022-09-10T12:43:49.038Z,60.56
2022-09-10T12:46:19.645Z,60.17
2022-09-10T12:48:51.040Z,61.30
2022-09-10T12:51:23.582Z,61.25
2022-09-10T12:54:00.603Z,62.86
2022-09-10T12:56:47.031Z,64.08
2022-09-10T12:59:35.843Z,58.69
2022-09-10T13:02:19.235Z,55.74
2022-09-10T13:04:58.527Z,56.97
2022-09-10T13:07:35.934Z,58.15
2022-09-10T13:10:25.052Z,58.39
2022-09-10T13:13:01.159Z,58.80
2022-09-10T13:15:35.384Z,59.93
2022-09-10T13:18:09.187Z,60.50
2022-09-10T13:20:37.276Z,60.56
2022-09-10T13:23:21.725Z,60.59
2022-09-10T13:25:51.998Z,60.72
2022-09-10T13:28:32.909Z,60.93
2022-09-10T13:31:17.191Z,61.19
2022-09-10T13:33:55.246Z,62.92
2022-09-10T13:36:42.095Z,63.19
2022-09-10T13:39:27.853Z,58.23
2022-09-10T13:42:34.990Z,57.32
2022-09-10T13:45:24.445Z,57.28
2022-09-10T13:48:10.988Z,58.46
2022-09-10T13:51:24.236Z,58.51
2022-09-10T13:53:53.421Z,59.67
2022-09-10T13:56:28.153Z,59.30
2022-09-10T13:59:03.370Z,60.51
2022-09-10T14:01:50.514Z,61.90
2022-09-10T14:04:43.125Z,62.55
2022-09-10T14:07:23.159Z,59.68
2022-09-10T14:09:58.963Z,55.58
2022-09-10T14:12:29.624Z,55.85
2022-09-10T14:15:00.689Z,56.86
2022-09-10T14:17:36.018Z,58.08
2022-09-10T14:20:33.199Z,59.05
2022-09-10T14:23:05.276Z,60.31
2022-09-10T14:25:36.044Z,61.11
2022-09-10T14:28:16.131Z,61.76
2022-09-10T14:30:45.185Z,62.33
2022-09-10T14:33:33.705Z,64.20
2022-09-10T14:36:34.653Z,62.53
2022-09-10T14:39:02.385Z,57.56
2022-09-10T14:41:32.766Z,56.33
2022-09-10T14:44:22.421Z,57.26
2022-09-10T14:47:12.748Z,58.00
2022-09-10T14:49:41.628Z,58.04
2022-09-10T14:52:11.381Z,59.17
2022-09-10T14:54:39.416Z,60.17
2022-09-10T14:57:13.812Z,60.57
2022-09-10T14:59:43.730Z,61.67
2022-09-10T15:02:23.625Z,61.50
2022-09-10T15:04:52.265Z,61.94
2022-09-10T15:07:20.911Z,64.21
2022-09-10T15:09:48.672Z,62.71
2022-09-10T15:12:27.885Z,56.93
2022-09-10T15:14:57.317Z,56.20
2022-09-10T15:17:25.668Z,55.94
2022-09-10T15:19:56.029Z,56.87
2022-09-10T15:22:27.574Z,57.50
2022-09-10T15:25:09.751Z,58.82
2022-09-10T15:27:38.323Z,59.85
2022-09-10T15:30:07.056Z,60.27
2022-09-10T15:32:34.996Z,60.57
2022-09-10T15:35:04.428Z,61.48
2022-09-10T15:37:32.860Z,62.12
2022-09-10T15:40:01.321Z,64.13
2022-09-10T15:42:30.597Z,62.79
2022-09-10T15:44:58.244Z,58.12
2022-09-10T15:47:27.023Z,56.41
2022-09-10T15:49:55.021Z,57.14
2022-09-10T15:52:22.783Z,57.71
2022-09-10T15:54:50.515Z,58.45
2022-09-10T15:57:18.417Z,59.09
2022-09-10T15:59:47.071Z,60.10
2022-09-10T16:02:14.921Z,60.74
2022-09-10T16:04:43.354Z,61.35
2022-09-10T16:07:11.891Z,61.76
2022-09-10T16:09:40.162Z,64.27
2022-09-10T16:12:08.333Z,62.73
2022-09-10T16:14:36.158Z,58.10
2022-09-10T16:17:10.346Z,56.64
2022-09-10T16:19:38.427Z,56.84
2022-09-10T16:22:06.566Z,57.82
2022-09-10T16:24:34.778Z,58.67
2022-09-10T16:27:02.805Z,59.61
2022-09-10T16:29:32.567Z,60.46
2022-09-10T16:32:00.416Z,61.22
2022-09-10T16:34:28.314Z,63.32
2022-09-10T16:36:56.120Z,62.90
2022-09-10T16:39:23.874Z,58.69
2022-09-10T16:41:51.887Z,57.22
2022-09-10T16:44:19.682Z,57.62
2022-09-10T16:46:48.187Z,58.63
2022-09-10T16:49:18.921Z,59.81
2022-09-10T16:51:49.118Z,60.87
2022-09-10T16:54:21.172Z,61.61
2022-09-10T16:56:49.264Z,64.41
2022-09-10T16:59:22.449Z,63.63
2022-09-10T17:01:51.994Z,58.37
2022-09-10T17:04:28.763Z,56.22
2022-09-10T17:06:57.779Z,56.58
2022-09-10T17:09:26.069Z,57.72
2022-09-10T17:11:54.178Z,58.92
2022-09-10T17:14:22.532Z,60.02
2022-09-10T17:16:50.400Z,60.96
2022-09-10T17:19:24.014Z,63.56
2022-09-10T17:21:55.784Z,63.65
2022-09-10T17:24:26.887Z,59.12
2022-09-10T17:26:55.523Z,57.09
2022-09-10T17:29:25.748Z,58.29
2022-09-10T17:31:55.503Z,59.20
2022-09-10T17:34:24.638Z,60.30
2022-09-10T17:36:52.908Z,61.52
2022-09-10T17:39:21.197Z,65.31
2022-09-10T17:41:49.275Z,64.03
2022-09-10T17:44:18.121Z,58.57
2022-09-10T17:46:46.450Z,56.61
2022-09-10T17:49:16.757Z,57.53
2022-09-10T17:51:46.228Z,58.80
2022-09-10T17:54:15.329Z,60.16
2022-09-10T17:56:43.533Z,61.31
2022-09-10T17:59:14.349Z,64.97
2022-09-10T18:01:43.241Z,63.45
2022-09-10T18:04:15.675Z,57.73
2022-09-10T18:06:47.868Z,56.13
2022-09-10T18:09:18.008Z,57.07
2022-09-10T18:11:45.988Z,58.53
2022-09-10T18:14:17.601Z,59.71
2022-09-10T18:16:46.415Z,61.16
2022-09-10T18:19:16.814Z,64.34
2022-09-10T18:21:46.650Z,63.08
2022-09-10T18:24:22.475Z,58.29
2022-09-10T18:26:53.866Z,56.96
2022-09-10T18:29:26.927Z,58.05
2022-09-10T18:31:58.491Z,59.31
2022-09-10T18:34:28.812Z,60.62
2022-09-10T18:36:59.308Z,61.59
2022-09-10T18:39:29.630Z,65.75
2022-09-10T18:42:00.658Z,64.09
2022-09-10T18:44:33.247Z,57.75
2022-09-10T18:47:00.997Z,55.87
2022-09-10T18:49:29.862Z,56.98
2022-09-10T18:51:57.963Z,58.47
2022-09-10T18:54:29.843Z,59.81
2022-09-10T18:56:58.335Z,60.93
2022-09-10T18:59:26.613Z,64.55
2022-09-10T19:01:55.772Z,63.65
2022-09-10T19:04:28.480Z,58.24
2022-09-10T19:06:57.879Z,56.22
2022-09-10T19:09:28.336Z,57.02
2022-09-10T19:11:58.576Z,58.23
2022-09-10T19:14:32.422Z,59.75
2022-09-10T19:17:01.506Z,61.27
2022-09-10T19:19:35.207Z,65.32
2022-09-10T19:22:10.142Z,63.52
2022-09-10T19:24:53.888Z,57.51
2022-09-10T19:27:24.029Z,56.17
2022-09-10T19:29:52.275Z,57.40
2022-09-10T19:32:20.333Z,59.16
2022-09-10T19:34:53.442Z,60.34
2022-09-10T19:37:21.121Z,61.61
2022-09-10T19:39:49.526Z,65.45
2022-09-10T19:42:17.862Z,63.60
2022-09-10T19:44:46.140Z,58.05
2022-09-10T19:47:13.909Z,56.48
2022-09-10T19:49:41.652Z,57.51
2022-09-10T19:52:11.133Z,59.15
2022-09-10T19:54:39.018Z,60.40
2022-09-10T19:57:06.700Z,63.93
2022-09-10T19:59:35.099Z,62.97
2022-09-10T20:02:03.069Z,58.04
2022-09-10T20:04:30.961Z,56.47
2022-09-10T20:06:58.668Z,57.52
2022-09-10T20:09:26.593Z,59.05
2022-09-10T20:11:54.359Z,60.34
2022-09-10T20:14:22.127Z,61.65
2022-09-10T20:16:49.968Z,65.45
2022-09-10T20:19:18.657Z,63.68
2022-09-10T20:21:47.832Z,57.66
2022-09-10T20:24:16.727Z,56.24
2022-09-10T20:26:46.578Z,57.47
2022-09-10T20:29:18.080Z,58.97
2022-09-10T20:31:47.123Z,60.68
2022-09-10T20:34:19.410Z,64.31
2022-09-10T20:36:51.182Z,62.79
2022-09-10T20:39:22.211Z,57.14
2022-09-10T20:41:50.250Z,55.97
2022-09-10T20:44:18.634Z,57.40
2022-09-10T20:46:46.395Z,58.90
2022-09-10T20:49:16.376Z,60.13
2022-09-10T20:51:45.050Z,61.07
2022-09-10T20:54:16.177Z,64.85
2022-09-10T20:56:45.607Z,63.57
2022-09-10T20:59:15.488Z,59.23
2022-09-10T21:01:45.949Z,57.30
2022-09-10T21:04:15.101Z,58.05
2022-09-10T21:06:43.270Z,59.30
2022-09-10T21:09:12.669Z,60.71
2022-09-10T21:11:40.853Z,64.65
2022-09-10T21:14:09.427Z,63.50
2022-09-10T21:16:39.858Z,57.02
2022-09-10T21:19:12.138Z,55.77
2022-09-10T21:21:41.608Z,57.49
2022-09-10T21:24:15.351Z,58.74
2022-09-10T21:26:44.085Z,60.32
2022-09-10T21:29:18.024Z,64.01
2022-09-10T21:31:46.848Z,63.52
2022-09-10T21:34:14.912Z,57.85
2022-09-10T21:36:43.930Z,55.91
2022-09-10T21:39:17.389Z,56.73
2022-09-10T21:41:47.772Z,58.34
2022-09-10T21:44:25.068Z,60.15
2022-09-10T21:46:53.398Z,61.44
2022-09-10T21:49:21.160Z,65.27
2022-09-10T21:51:49.215Z,63.91
2022-09-10T21:54:20.954Z,57.98
2022-09-10T21:56:50.157Z,56.59
2022-09-10T21:59:19.404Z,57.70
2022-09-10T22:01:48.090Z,59.15
2022-09-10T22:04:21.721Z,60.75
2022-09-10T22:06:51.246Z,64.65
2022-09-10T22:09:20.677Z,63.18
2022-09-10T22:11:51.959Z,57.32
2022-09-10T22:14:24.965Z,56.40
2022-09-10T22:16:53.633Z,57.20
2022-09-10T22:19:23.816Z,58.71
2022-09-10T22:21:57.489Z,60.13
2022-09-10T22:24:26.313Z,61.02
2022-09-10T22:26:54.706Z,64.74
2022-09-10T22:29:22.973Z,63.94
2022-09-10T22:31:51.005Z,57.76
2022-09-10T22:34:19.171Z,56.01
2022-09-10T22:36:49.326Z,57.36
2022-09-10T22:39:19.870Z,59.36
2022-09-10T22:41:49.500Z,60.57
2022-09-10T22:44:18.156Z,61.45
2022-09-10T22:46:46.345Z,64.81
2022-09-10T22:49:19.853Z,64.22
2022-09-10T22:51:49.017Z,58.24
2022-09-10T22:54:17.412Z,56.29
2022-09-10T22:56:45.258Z,57.88
2022-09-10T22:59:15.326Z,59.59
2022-09-10T23:01:47.597Z,60.96
2022-09-10T23:04:15.825Z,64.57
2022-09-10T23:06:43.894Z,63.19
2022-09-10T23:09:15.389Z,58.56
2022-09-10T23:11:44.695Z,56.49
2022-09-10T23:14:16.673Z,57.58
2022-09-10T23:16:49.752Z,59.11
2022-09-10T23:19:24.029Z,60.45
2022-09-10T23:21:54.716Z,64.41
2022-09-10T23:24:24.766Z,63.12
2022-09-10T23:26:53.911Z,57.23
2022-09-10T23:29:23.193Z,56.23
2022-09-10T23:31:53.508Z,57.36
2022-09-10T23:34:22.668Z,58.95
2022-09-10T23:36:51.751Z,60.44
2022-09-10T23:39:24.584Z,64.09
2022-09-10T23:41:57.969Z,62.94
2022-09-10T23:44:26.195Z,58.07
2022-09-10T23:46:55.541Z,56.73
2022-09-10T23:49:26.335Z,58.10
2022-09-10T23:51:54.377Z,59.68
2022-09-10T23:54:22.136Z,61.23
2022-09-10T23:56:49.972Z,64.48
2022-09-10T23:59:17.955Z,63.60
